Etusivu
METAR-TAF:

METAR-TAF

Lentoasemat :

Del Rio International Airport

Del Rio, Texas, Yhdysvallat

Leveyspiiri: 29-22-29N, Pituuspiiri: 100-55-25W, korkeus merenpinnasta: 304 m

Tämänhetkinen sää

Tämä raportti tehtiin 39 minuuttia sitten, kello 09.53 UTC
Tuuli 9 kn idästä
Lämpötila 28°C
Kosteus 74%
Ilmanpaine 1014 hPa
Näkyvyys: 16.1 km
selkeää

METAR: KDRT 030953Z AUTO 09009KT 10SM CLR 28/23 A2994 RMK AO2 SLP120 T02780228

Aika: 05:32 (10:32 UTC)

Sääennuste

Tämä raportti tehtiin 5 tuntia ja 10 minuuttia sitten, kello 05.22 UTC
Ennuste voimassa 03. päivästä klo 06 UTC - 04. päivään klo 06 UTC
Tuuli 10 kn idästä/kaakosta
Näkyvyys: 10 km
Hajanaisia pilviä 25000 ft:n korkeudessa
From 03. päivästä klo 1500 UTC
Tuuli 12 kn kaakosta
Näkyvyys: 10 km
Hajanaisia pilviä 3000 ft:n korkeudessa
Hajanaisia pilviä 25000 ft:n korkeudessa

TAF: KDRT 030522Z 0306/0406 11010KT P6SM SCT250 FM031500 14012KT P6SM SCT030 SCT250

Säähavainnot ja -ennusteet yli 4000 lentoasemalta (METAR- ja TAF-raportit).

Käytössä olevat sääasemat on merkitty karttaan keltaisilla ja punaisilla pisteillä.

Aseta hiiri pisteen päälle nähdäksesi sääaseman nimen.

Klikkaa sitten nähdäksesi säähavainnot ja -ennusteet.

Kartan vaihtaminen: klikkaa mustalla rastilla varustettuja vihreitä pisteitä, niin voit zoomata sisään; viivalla varustettua vihreää pistettä, niin voit zoomata ulos tai vihreitä nuolia, niin pääset viereisille kartoille.


METAR-TAF: